sensor_id;sensor_type;location;lat;lon;timestamp;pressure;altitude;pressure_sealevel;temperature;humidity
70954;BME280;58618;47.490;8.736;2022-09-20T00:01:54;97029.19;;;7.31;100.00
70954;BME280;58618;47.490;8.736;2022-09-20T00:04:41;97029.91;;;7.27;100.00
70954;BME280;58618;47.490;8.736;2022-09-20T00:07:28;97029.13;;;7.26;100.00
70954;BME280;58618;47.490;8.736;2022-09-20T00:10:16;97031.34;;;7.17;100.00
70954;BME280;58618;47.490;8.736;2022-09-20T00:13:05;97020.34;;;7.00;100.00
70954;BME280;58618;47.490;8.736;2022-09-20T00:15:52;97025.81;;;6.87;100.00
70954;BME280;58618;47.490;8.736;2022-09-20T00:18:41;97010.88;;;6.67;100.00
70954;BME280;58618;47.490;8.736;2022-09-20T00:21:30;97023.13;;;6.82;100.00
70954;BME280;58618;47.490;8.736;2022-09-20T00:24:18;97021.63;;;6.81;100.00
70954;BME280;58618;47.490;8.736;2022-09-20T00:27:05;97016.09;;;6.72;100.00
70954;BME280;58618;47.490;8.736;2022-09-20T00:29:52;97019.44;;;6.56;100.00
70954;BME280;58618;47.490;8.736;2022-09-20T00:32:40;97012.44;;;6.52;100.00
70954;BME280;58618;47.490;8.736;2022-09-20T00:35:29;97023.88;;;6.27;100.00
70954;BME280;58618;47.490;8.736;2022-09-20T00:38:16;97013.84;;;6.26;100.00
70954;BME280;58618;47.490;8.736;2022-09-20T00:41:04;97021.16;;;6.34;100.00
70954;BME280;58618;47.490;8.736;2022-09-20T00:43:52;97020.53;;;6.44;100.00
70954;BME280;58618;47.490;8.736;2022-09-20T00:46:42;97016.50;;;6.48;100.00
70954;BME280;58618;47.490;8.736;2022-09-20T00:49:32;97015.41;;;6.44;100.00
70954;BME280;58618;47.490;8.736;2022-09-20T00:52:25;97007.88;;;6.37;100.00
70954;BME280;58618;47.490;8.736;2022-09-20T00:55:14;97009.81;;;6.30;100.00
70954;BME280;58618;47.490;8.736;2022-09-20T00:58:02;97012.47;;;6.18;100.00
70954;BME280;58618;47.490;8.736;2022-09-20T01:00:50;97019.72;;;6.10;100.00
70954;BME280;58618;47.490;8.736;2022-09-20T01:03:41;97000.94;;;6.04;100.00
70954;BME280;58618;47.490;8.736;2022-09-20T01:06:29;97018.03;;;6.15;100.00
70954;BME280;58618;47.490;8.736;2022-09-20T01:09:18;97015.03;;;6.18;100.00
70954;BME280;58618;47.490;8.736;2022-09-20T01:12:09;97012.91;;;6.15;100.00
70954;BME280;58618;47.490;8.736;2022-09-20T01:14:59;97010.72;;;6.07;100.00
70954;BME280;58618;47.490;8.736;2022-09-20T01:17:51;97006.66;;;5.94;100.00
70954;BME280;58618;47.490;8.736;2022-09-20T01:20:40;97005.28;;;6.04;100.00
70954;BME280;58618;47.490;8.736;2022-09-20T01:23:41;97005.84;;;6.06;100.00
70954;BME280;58618;47.490;8.736;2022-09-20T01:26:49;97007.44;;;5.95;100.00
70954;BME280;58618;47.490;8.736;2022-09-20T01:29:58;97003.13;;;5.84;100.00
70954;BME280;58618;47.490;8.736;2022-09-20T01:33:00;97000.56;;;5.84;100.00
70954;BME280;58618;47.490;8.736;2022-09-20T01:35:51;97005.88;;;5.94;100.00
70954;BME280;58618;47.490;8.736;2022-09-20T01:38:44;96999.00;;;5.83;100.00
70954;BME280;58618;47.490;8.736;2022-09-20T01:41:37;96995.44;;;5.84;100.00
70954;BME280;58618;47.490;8.736;2022-09-20T01:44:33;96999.38;;;5.75;100.00
70954;BME280;58618;47.490;8.736;2022-09-20T01:47:30;96997.72;;;5.69;100.00
70954;BME280;58618;47.490;8.736;2022-09-20T01:50:28;96985.63;;;5.64;100.00
70954;BME280;58618;47.490;8.736;2022-09-20T01:53:55;96989.28;;;5.68;100.00
70954;BME280;58618;47.490;8.736;2022-09-20T02:00:11;96984.06;;;5.63;100.00
70954;BME280;58618;47.490;8.736;2022-09-20T02:06:49;96993.41;;;5.69;100.00
70954;BME280;58618;47.490;8.736;2022-09-20T02:09:55;97000.19;;;5.64;100.00
70954;BME280;58618;47.490;8.736;2022-09-20T02:12:51;97002.53;;;5.65;100.00
70954;BME280;58618;47.490;8.736;2022-09-20T02:19:19;97010.84;;;5.44;100.00
70954;BME280;58618;47.490;8.736;2022-09-20T02:22:18;97001.88;;;5.18;100.00
70954;BME280;58618;47.490;8.736;2022-09-20T02:25:19;97003.00;;;5.22;100.00
70954;BME280;58618;47.490;8.736;2022-09-20T02:28:20;97001.84;;;5.30;100.00
70954;BME280;58618;47.490;8.736;2022-09-20T02:31:15;96997.72;;;5.29;100.00
70954;BME280;58618;47.490;8.736;2022-09-20T02:34:45;96997.69;;;5.40;100.00
70954;BME280;58618;47.490;8.736;2022-09-20T02:37:52;96994.94;;;5.30;100.00
70954;BME280;58618;47.490;8.736;2022-09-20T02:44:17;97001.13;;;4.94;100.00
70954;BME280;58618;47.490;8.736;2022-09-20T02:47:13;97005.78;;;5.09;100.00
70954;BME280;58618;47.490;8.736;2022-09-20T02:50:13;97006.22;;;5.18;100.00
70954;BME280;58618;47.490;8.736;2022-09-20T02:53:17;97004.31;;;5.13;100.00
70954;BME280;58618;47.490;8.736;2022-09-20T02:56:17;96997.22;;;5.15;100.00
70954;BME280;58618;47.490;8.736;2022-09-20T02:59:12;96993.47;;;5.06;100.00
70954;BME280;58618;47.490;8.736;2022-09-20T03:02:14;97003.69;;;5.06;100.00
70954;BME280;58618;47.490;8.736;2022-09-20T03:05:10;97007.78;;;5.07;100.00
70954;BME280;58618;47.490;8.736;2022-09-20T03:08:14;97014.53;;;5.13;100.00
70954;BME280;58618;47.490;8.736;2022-09-20T03:11:15;97015.00;;;5.10;100.00
70954;BME280;58618;47.490;8.736;2022-09-20T03:14:10;97025.59;;;5.02;100.00
70954;BME280;58618;47.490;8.736;2022-09-20T03:17:06;97026.59;;;5.01;100.00
70954;BME280;58618;47.490;8.736;2022-09-20T03:20:05;97021.91;;;4.98;100.00
70954;BME280;58618;47.490;8.736;2022-09-20T03:23:00;97022.34;;;4.95;100.00
70954;BME280;58618;47.490;8.736;2022-09-20T03:25:58;97029.13;;;4.89;100.00
70954;BME280;58618;47.490;8.736;2022-09-20T03:28:56;97031.03;;;4.94;100.00
70954;BME280;58618;47.490;8.736;2022-09-20T03:31:54;97025.91;;;4.94;100.00
70954;BME280;58618;47.490;8.736;2022-09-20T03:34:54;97023.91;;;4.84;100.00
70954;BME280;58618;47.490;8.736;2022-09-20T03:37:55;97028.34;;;4.65;100.00
70954;BME280;58618;47.490;8.736;2022-09-20T03:44:33;97024.25;;;4.76;100.00
70954;BME280;58618;47.490;8.736;2022-09-20T03:47:40;97017.69;;;4.68;100.00
70954;BME280;58618;47.490;8.736;2022-09-20T03:50:44;97020.78;;;4.71;100.00
70954;BME280;58618;47.490;8.736;2022-09-20T03:53:57;97020.03;;;4.70;100.00
70954;BME280;58618;47.490;8.736;2022-09-20T03:57:06;97006.91;;;4.66;100.00
70954;BME280;58618;47.490;8.736;2022-09-20T04:00:08;97015.94;;;4.81;100.00
70954;BME280;58618;47.490;8.736;2022-09-20T04:03:19;97015.94;;;4.81;100.00
70954;BME280;58618;47.490;8.736;2022-09-20T04:06:20;97018.59;;;4.86;100.00
70954;BME280;58618;47.490;8.736;2022-09-20T04:09:31;97012.81;;;4.79;100.00
70954;BME280;58618;47.490;8.736;2022-09-20T04:12:27;97009.47;;;4.66;100.00
70954;BME280;58618;47.490;8.736;2022-09-20T04:15:24;97010.25;;;4.67;100.00
70954;BME280;58618;47.490;8.736;2022-09-20T04:18:21;97015.91;;;4.57;100.00
70954;BME280;58618;47.490;8.736;2022-09-20T04:21:16;97012.53;;;4.34;100.00
70954;BME280;58618;47.490;8.736;2022-09-20T04:24:11;97020.78;;;4.47;100.00
70954;BME280;58618;47.490;8.736;2022-09-20T04:27:11;97030.13;;;4.53;100.00
70954;BME280;58618;47.490;8.736;2022-09-20T04:30:04;97024.56;;;4.56;100.00
70954;BME280;58618;47.490;8.736;2022-09-20T04:32:58;97036.03;;;4.54;100.00
70954;BME280;58618;47.490;8.736;2022-09-20T04:35:55;97033.78;;;4.57;100.00
70954;BME280;58618;47.490;8.736;2022-09-20T04:39:14;97030.13;;;4.53;100.00
70954;BME280;58618;47.490;8.736;2022-09-20T04:42:34;97020.44;;;4.55;100.00
70954;BME280;58618;47.490;8.736;2022-09-20T04:46:11;97029.13;;;4.54;100.00
70954;BME280;58618;47.490;8.736;2022-09-20T04:49:22;97034.78;;;4.56;100.00
70954;BME280;58618;47.490;8.736;2022-09-20T04:55:50;97032.13;;;4.51;100.00
70954;BME280;58618;47.490;8.736;2022-09-20T04:58:55;97036.34;;;4.57;100.00
70954;BME280;58618;47.490;8.736;2022-09-20T05:02:13;97039.91;;;4.56;100.00
70954;BME280;58618;47.490;8.736;2022-09-20T05:05:35;97044.34;;;4.49;100.00
70954;BME280;58618;47.490;8.736;2022-09-20T05:11:56;97050.75;;;4.40;100.00
70954;BME280;58618;47.490;8.736;2022-09-20T05:15:05;97053.00;;;4.48;100.00
70954;BME280;58618;47.490;8.736;2022-09-20T05:18:25;97055.31;;;4.50;100.00
70954;BME280;58618;47.490;8.736;2022-09-20T05:21:42;97046.34;;;4.47;100.00
70954;BME280;58618;47.490;8.736;2022-09-20T05:24:56;97047.88;;;4.48;100.00
70954;BME280;58618;47.490;8.736;2022-09-20T05:27:53;97056.09;;;4.50;100.00
70954;BME280;58618;47.490;8.736;2022-09-20T05:30:45;97057.66;;;4.51;100.00
70954;BME280;58618;47.490;8.736;2022-09-20T05:33:39;97063.88;;;4.55;100.00
70954;BME280;58618;47.490;8.736;2022-09-20T05:36:44;97062.34;;;4.66;100.00
70954;BME280;58618;47.490;8.736;2022-09-20T05:39:37;97066.34;;;4.74;100.00
70954;BME280;58618;47.490;8.736;2022-09-20T05:42:36;97067.03;;;4.81;100.00
70954;BME280;58618;47.490;8.736;2022-09-20T05:45:49;97059.50;;;4.86;100.00
70954;BME280;58618;47.490;8.736;2022-09-20T05:48:54;97072.13;;;5.04;100.00
70954;BME280;58618;47.490;8.736;2022-09-20T05:52:03;97063.59;;;5.22;100.00
70954;BME280;58618;47.490;8.736;2022-09-20T05:55:10;97064.09;;;6.44;100.00
70954;BME280;58618;47.490;8.736;2022-09-20T05:58:20;97060.75;;;7.97;96.76
70954;BME280;58618;47.490;8.736;2022-09-20T06:01:10;97064.03;;;9.15;89.84
70954;BME280;58618;47.490;8.736;2022-09-20T06:04:07;97070.63;;;10.15;84.36
70954;BME280;58618;47.490;8.736;2022-09-20T06:07:05;97068.63;;;10.78;80.66
70954;BME280;58618;47.490;8.736;2022-09-20T06:16:36;97073.38;;;12.87;73.77
70954;BME280;58618;47.490;8.736;2022-09-20T06:19:32;97073.28;;;13.50;69.30
70954;BME280;58618;47.490;8.736;2022-09-20T06:22:26;97072.31;;;13.88;69.23
70954;BME280;58618;47.490;8.736;2022-09-20T06:25:18;97079.78;;;14.14;68.75
70954;BME280;58618;47.490;8.736;2022-09-20T06:28:12;97070.03;;;15.08;64.62
70954;BME280;58618;47.490;8.736;2022-09-20T06:31:01;97077.72;;;15.59;61.01
70954;BME280;58618;47.490;8.736;2022-09-20T06:33:57;97087.63;;;16.20;58.37
70954;BME280;58618;47.490;8.736;2022-09-20T06:36:50;97068.50;;;16.38;59.02
70954;BME280;58618;47.490;8.736;2022-09-20T06:40:18;97088.88;;;16.59;56.37
70954;BME280;58618;47.490;8.736;2022-09-20T06:43:26;97076.91;;;17.02;56.96
70954;BME280;58618;47.490;8.736;2022-09-20T06:46:16;97084.19;;;17.62;54.23
70954;BME280;58618;47.490;8.736;2022-09-20T06:49:04;97088.06;;;17.73;54.23
70954;BME280;58618;47.490;8.736;2022-09-20T06:51:53;97091.53;;;18.25;51.71
70954;BME280;58618;47.490;8.736;2022-09-20T06:54:41;97081.78;;;17.74;52.98
70954;BME280;58618;47.490;8.736;2022-09-20T06:57:34;97079.09;;;18.31;52.04
70954;BME280;58618;47.490;8.736;2022-09-20T07:00:22;97084.16;;;18.62;50.96
70954;BME280;58618;47.490;8.736;2022-09-20T07:03:10;97093.84;;;18.44;51.66
70954;BME280;58618;47.490;8.736;2022-09-20T07:05:58;97083.72;;;18.34;52.58
70954;BME280;58618;47.490;8.736;2022-09-20T07:08:46;97088.59;;;18.09;51.09
70954;BME280;58618;47.490;8.736;2022-09-20T07:11:33;97079.44;;;18.55;50.59
70954;BME280;58618;47.490;8.736;2022-09-20T07:14:22;97081.06;;;18.25;50.60
70954;BME280;58618;47.490;8.736;2022-09-20T07:17:10;97082.78;;;18.64;50.56
70954;BME280;58618;47.490;8.736;2022-09-20T07:19:58;97085.22;;;18.86;50.23
70954;BME280;58618;47.490;8.736;2022-09-20T07:22:46;97088.94;;;18.34;50.25
70954;BME280;58618;47.490;8.736;2022-09-20T07:25:34;97084.00;;;18.32;50.79
70954;BME280;58618;47.490;8.736;2022-09-20T07:28:22;97082.13;;;17.98;50.69
70954;BME280;58618;47.490;8.736;2022-09-20T07:31:11;97087.84;;;18.52;51.20
70954;BME280;58618;47.490;8.736;2022-09-20T07:33:58;97084.78;;;19.31;47.68
70954;BME280;58618;47.490;8.736;2022-09-20T07:36:45;97089.63;;;19.58;47.54
70954;BME280;58618;47.490;8.736;2022-09-20T07:39:35;97094.13;;;19.78;47.11
70954;BME280;58618;47.490;8.736;2022-09-20T07:42:23;97104.16;;;19.76;47.00
70954;BME280;58618;47.490;8.736;2022-09-20T07:45:10;97098.91;;;19.47;47.57
70954;BME280;58618;47.490;8.736;2022-09-20T07:47:59;97091.78;;;19.56;46.93
70954;BME280;58618;47.490;8.736;2022-09-20T07:50:51;97095.75;;;19.62;46.87
70954;BME280;58618;47.490;8.736;2022-09-20T07:53:39;97099.06;;;19.51;49.03
70954;BME280;58618;47.490;8.736;2022-09-20T07:56:26;97098.41;;;19.54;48.44
70954;BME280;58618;47.490;8.736;2022-09-20T07:59:14;97096.66;;;19.28;49.40
70954;BME280;58618;47.490;8.736;2022-09-20T08:02:01;97097.91;;;19.22;49.43
70954;BME280;58618;47.490;8.736;2022-09-20T08:04:50;97102.38;;;19.05;49.88
70954;BME280;58618;47.490;8.736;2022-09-20T08:07:37;97098.47;;;18.81;48.63
70954;BME280;58618;47.490;8.736;2022-09-20T08:10:25;97109.84;;;18.77;51.13
70954;BME280;58618;47.490;8.736;2022-09-20T08:13:13;97105.97;;;18.83;51.44
70954;BME280;58618;47.490;8.736;2022-09-20T08:16:01;97109.50;;;18.95;49.94
70954;BME280;58618;47.490;8.736;2022-09-20T08:18:50;97109.19;;;18.97;49.33
70954;BME280;58618;47.490;8.736;2022-09-20T08:21:40;97111.66;;;19.02;49.37
70954;BME280;58618;47.490;8.736;2022-09-20T08:24:27;97102.06;;;19.15;47.71
70954;BME280;58618;47.490;8.736;2022-09-20T08:27:14;97111.31;;;19.12;46.66
70954;BME280;58618;47.490;8.736;2022-09-20T08:30:02;97115.59;;;19.17;47.94
70954;BME280;58618;47.490;8.736;2022-09-20T08:32:50;97119.06;;;18.57;47.43
70954;BME280;58618;47.490;8.736;2022-09-20T08:35:38;97118.44;;;18.77;46.74
70954;BME280;58618;47.490;8.736;2022-09-20T08:38:27;97117.78;;;19.06;49.01
70954;BME280;58618;47.490;8.736;2022-09-20T08:41:19;97117.31;;;19.04;45.13
70954;BME280;58618;47.490;8.736;2022-09-20T08:44:13;97111.31;;;19.04;45.05
70954;BME280;58618;47.490;8.736;2022-09-20T08:47:16;97114.34;;;19.23;44.64
70954;BME280;58618;47.490;8.736;2022-09-20T08:50:07;97116.88;;;18.93;46.54
70954;BME280;58618;47.490;8.736;2022-09-20T08:52:59;97123.06;;;18.63;46.44
70954;BME280;58618;47.490;8.736;2022-09-20T08:55:51;97123.69;;;18.60;46.64
70954;BME280;58618;47.490;8.736;2022-09-20T08:58:38;97113.03;;;18.31;46.09
70954;BME280;58618;47.490;8.736;2022-09-20T09:01:27;97112.13;;;18.27;48.03
70954;BME280;58618;47.490;8.736;2022-09-20T09:04:19;97111.56;;;17.73;52.15
70954;BME280;58618;47.490;8.736;2022-09-20T09:07:09;97097.38;;;16.95;50.69
70954;BME280;58618;47.490;8.736;2022-09-20T09:09:58;97104.72;;;16.93;51.52
70954;BME280;58618;47.490;8.736;2022-09-20T09:12:50;97103.28;;;15.93;49.38
70954;BME280;58618;47.490;8.736;2022-09-20T09:15:39;97113.06;;;16.23;49.87
70954;BME280;58618;47.490;8.736;2022-09-20T09:18:32;97097.31;;;16.06;50.09
70954;BME280;58618;47.490;8.736;2022-09-20T09:21:23;97099.44;;;15.77;51.47
70954;BME280;58618;47.490;8.736;2022-09-20T09:24:15;97098.66;;;15.35;51.99
70954;BME280;58618;47.490;8.736;2022-09-20T09:27:11;97102.25;;;15.80;53.40
70954;BME280;58618;47.490;8.736;2022-09-20T09:30:18;97101.00;;;15.91;54.51
70954;BME280;58618;47.490;8.736;2022-09-20T09:33:20;97098.09;;;15.93;54.80
70954;BME280;58618;47.490;8.736;2022-09-20T09:36:13;97091.47;;;15.73;55.01
70954;BME280;58618;47.490;8.736;2022-09-20T09:39:15;97091.91;;;15.34;55.11
70954;BME280;58618;47.490;8.736;2022-09-20T09:42:18;97098.16;;;14.73;58.01
70954;BME280;58618;47.490;8.736;2022-09-20T09:45:12;97093.25;;;14.53;59.27
70954;BME280;58618;47.490;8.736;2022-09-20T09:48:18;97095.41;;;14.65;59.13
70954;BME280;58618;47.490;8.736;2022-09-20T09:51:09;97094.66;;;14.64;57.81
70954;BME280;58618;47.490;8.736;2022-09-20T09:53:57;97096.09;;;14.70;56.88
70954;BME280;58618;47.490;8.736;2022-09-20T09:56:53;97088.75;;;14.91;57.59
70954;BME280;58618;47.490;8.736;2022-09-20T09:59:53;97084.75;;;14.99;56.01
70954;BME280;58618;47.490;8.736;2022-09-20T10:03:19;97090.72;;;15.13;55.17
70954;BME280;58618;47.490;8.736;2022-09-20T10:06:19;97087.09;;;15.41;54.85
70954;BME280;58618;47.490;8.736;2022-09-20T10:09:17;97081.72;;;15.79;54.75
70954;BME280;58618;47.490;8.736;2022-09-20T10:12:18;97084.03;;;15.94;52.42
70954;BME280;58618;47.490;8.736;2022-09-20T10:15:23;97060.44;;;15.90;52.00
70954;BME280;58618;47.490;8.736;2022-09-20T10:18:30;97083.28;;;15.52;51.70
70954;BME280;58618;47.490;8.736;2022-09-20T10:21:34;97073.75;;;15.61;51.01
70954;BME280;58618;47.490;8.736;2022-09-20T10:24:37;97071.88;;;15.35;50.70
70954;BME280;58618;47.490;8.736;2022-09-20T10:27:45;97071.44;;;14.87;52.14
70954;BME280;58618;47.490;8.736;2022-09-20T10:30:45;97082.16;;;14.29;53.08
70954;BME280;58618;47.490;8.736;2022-09-20T10:33:41;97074.38;;;14.10;52.49
70954;BME280;58618;47.490;8.736;2022-09-20T10:36:37;97078.19;;;14.36;52.03
70954;BME280;58618;47.490;8.736;2022-09-20T10:39:31;97062.13;;;14.86;53.81
70954;BME280;58618;47.490;8.736;2022-09-20T10:42:27;97063.78;;;15.50;54.13
70954;BME280;58618;47.490;8.736;2022-09-20T10:45:39;97068.81;;;15.74;50.61
70954;BME280;58618;47.490;8.736;2022-09-20T10:48:31;97065.41;;;15.87;49.10
70954;BME280;58618;47.490;8.736;2022-09-20T10:51:30;97061.88;;;15.83;48.42
70954;BME280;58618;47.490;8.736;2022-09-20T10:54:33;97067.03;;;16.10;47.26
70954;BME280;58618;47.490;8.736;2022-09-20T11:00:48;97043.59;;;15.33;49.48
70954;BME280;58618;47.490;8.736;2022-09-20T11:04:12;97058.41;;;15.60;52.32
70954;BME280;58618;47.490;8.736;2022-09-20T11:07:10;97058.25;;;15.70;54.23
70954;BME280;58618;47.490;8.736;2022-09-20T11:10:03;97061.22;;;15.63;52.45
70954;BME280;58618;47.490;8.736;2022-09-20T11:12:57;97054.84;;;15.42;53.02
70954;BME280;58618;47.490;8.736;2022-09-20T11:15:50;97061.00;;;15.46;54.34
70954;BME280;58618;47.490;8.736;2022-09-20T11:18:46;97062.66;;;15.56;53.39
70954;BME280;58618;47.490;8.736;2022-09-20T11:21:40;97046.09;;;15.38;50.91
70954;BME280;58618;47.490;8.736;2022-09-20T11:24:35;97054.16;;;15.50;53.78
70954;BME280;58618;47.490;8.736;2022-09-20T11:27:27;97053.13;;;15.51;53.73
70954;BME280;58618;47.490;8.736;2022-09-20T11:30:18;97055.88;;;15.14;53.98
70954;BME280;58618;47.490;8.736;2022-09-20T11:33:12;97059.81;;;14.98;54.55
70954;BME280;58618;47.490;8.736;2022-09-20T11:36:03;97039.19;;;14.42;53.14
70954;BME280;58618;47.490;8.736;2022-09-20T11:38:55;97047.75;;;14.74;51.83
70954;BME280;58618;47.490;8.736;2022-09-20T11:41:46;97050.47;;;14.83;54.77
70954;BME280;58618;47.490;8.736;2022-09-20T11:44:38;97051.84;;;15.08;52.93
70954;BME280;58618;47.490;8.736;2022-09-20T11:47:29;97047.69;;;15.07;51.77
70954;BME280;58618;47.490;8.736;2022-09-20T11:50:46;97048.28;;;15.04;52.34
70954;BME280;58618;47.490;8.736;2022-09-20T11:53:50;97048.00;;;15.46;53.50
70954;BME280;58618;47.490;8.736;2022-09-20T11:56:55;97046.28;;;15.69;52.16
70954;BME280;58618;47.490;8.736;2022-09-20T11:59:49;97032.16;;;15.97;53.15
70954;BME280;58618;47.490;8.736;2022-09-20T12:02:46;97039.63;;;16.13;52.10
70954;BME280;58618;47.490;8.736;2022-09-20T12:05:38;97033.16;;;15.88;49.70
70954;BME280;58618;47.490;8.736;2022-09-20T12:08:28;97032.03;;;16.16;48.55
70954;BME280;58618;47.490;8.736;2022-09-20T12:11:26;97036.59;;;15.97;47.37
70954;BME280;58618;47.490;8.736;2022-09-20T12:14:19;97031.06;;;15.62;50.04
70954;BME280;58618;47.490;8.736;2022-09-20T12:24:14;97034.94;;;15.51;50.81
70954;BME280;58618;47.490;8.736;2022-09-20T12:27:20;97031.06;;;15.62;47.43
70954;BME280;58618;47.490;8.736;2022-09-20T12:30:16;97034.06;;;15.70;47.22
70954;BME280;58618;47.490;8.736;2022-09-20T12:33:17;97022.75;;;15.88;46.67
70954;BME280;58618;47.490;8.736;2022-09-20T12:36:16;97020.03;;;15.93;46.23
70954;BME280;58618;47.490;8.736;2022-09-20T12:39:12;97019.94;;;16.20;45.46
70954;BME280;58618;47.490;8.736;2022-09-20T12:42:03;97017.75;;;16.36;46.54
70954;BME280;58618;47.490;8.736;2022-09-20T12:44:58;97009.16;;;16.58;51.52
70954;BME280;58618;47.490;8.736;2022-09-20T12:47:52;97009.03;;;16.85;47.82
70954;BME280;58618;47.490;8.736;2022-09-20T12:50:40;97015.44;;;16.34;45.62
70954;BME280;58618;47.490;8.736;2022-09-20T12:53:57;97015.56;;;16.52;44.57
70954;BME280;58618;47.490;8.736;2022-09-20T12:56:46;97014.84;;;16.82;44.53
70954;BME280;58618;47.490;8.736;2022-09-20T12:59:33;97021.38;;;16.48;44.35
70954;BME280;58618;47.490;8.736;2022-09-20T13:05:46;97021.72;;;16.56;47.07
70954;BME280;58618;47.490;8.736;2022-09-20T13:08:40;97012.94;;;16.65;46.41
70954;BME280;58618;47.490;8.736;2022-09-20T13:11:33;97017.06;;;16.97;46.68
70954;BME280;58618;47.490;8.736;2022-09-20T13:14:25;97013.78;;;17.22;43.39
70954;BME280;58618;47.490;8.736;2022-09-20T13:17:25;97011.09;;;17.45;43.61
70954;BME280;58618;47.490;8.736;2022-09-20T13:20:19;97015.56;;;17.44;43.25
70954;BME280;58618;47.490;8.736;2022-09-20T13:23:17;97004.50;;;17.47;43.25
70954;BME280;58618;47.490;8.736;2022-09-20T13:26:09;97006.47;;;17.42;43.43
70954;BME280;58618;47.490;8.736;2022-09-20T13:28:58;97002.97;;;17.46;44.21
70954;BME280;58618;47.490;8.736;2022-09-20T13:31:46;97009.66;;;17.30;41.86
70954;BME280;58618;47.490;8.736;2022-09-20T13:34:33;97000.22;;;17.03;42.52
70954;BME280;58618;47.490;8.736;2022-09-20T13:37:21;97002.41;;;16.57;43.52
70954;BME280;58618;47.490;8.736;2022-09-20T13:40:17;97000.66;;;16.21;44.75
70954;BME280;58618;47.490;8.736;2022-09-20T13:43:14;96996.03;;;16.18;45.93
70954;BME280;58618;47.490;8.736;2022-09-20T13:46:08;96995.81;;;16.28;46.17
70954;BME280;58618;47.490;8.736;2022-09-20T13:49:13;96989.16;;;16.44;46.57
70954;BME280;58618;47.490;8.736;2022-09-20T13:52:17;96997.56;;;16.19;47.51
70954;BME280;58618;47.490;8.736;2022-09-20T13:55:25;96999.53;;;15.91;47.10
70954;BME280;58618;47.490;8.736;2022-09-20T13:58:20;96997.81;;;16.09;47.26
70954;BME280;58618;47.490;8.736;2022-09-20T14:01:27;96994.84;;;16.24;47.01
70954;BME280;58618;47.490;8.736;2022-09-20T14:04:17;96999.00;;;16.03;48.21
70954;BME280;58618;47.490;8.736;2022-09-20T14:07:06;96996.03;;;16.18;45.11
70954;BME280;58618;47.490;8.736;2022-09-20T14:09:55;96994.31;;;16.14;44.89
70954;BME280;58618;47.490;8.736;2022-09-20T14:12:45;96994.81;;;16.16;45.22
70954;BME280;58618;47.490;8.736;2022-09-20T14:15:36;96997.88;;;15.95;45.95
70954;BME280;58618;47.490;8.736;2022-09-20T14:18:24;96995.31;;;16.04;46.06
70954;BME280;58618;47.490;8.736;2022-09-20T14:21:16;96995.09;;;16.14;47.86
70954;BME280;58618;47.490;8.736;2022-09-20T14:24:24;96991.06;;;16.08;48.26
70954;BME280;58618;47.490;8.736;2022-09-20T14:27:16;96992.78;;;16.35;46.59
70954;BME280;58618;47.490;8.736;2022-09-20T14:30:26;96991.91;;;15.95;48.60
70954;BME280;58618;47.490;8.736;2022-09-20T14:33:15;96989.84;;;15.70;48.87
70954;BME280;58618;47.490;8.736;2022-09-20T14:36:11;96993.22;;;16.06;48.88
70954;BME280;58618;47.490;8.736;2022-09-20T14:39:02;96994.81;;;16.16;46.18
70954;BME280;58618;47.490;8.736;2022-09-20T14:41:50;96991.25;;;16.12;46.67
70954;BME280;58618;47.490;8.736;2022-09-20T14:44:38;96996.94;;;15.78;46.62
70954;BME280;58618;47.490;8.736;2022-09-20T14:47:34;96998.72;;;15.69;46.78
70954;BME280;58618;47.490;8.736;2022-09-20T14:50:26;97002.16;;;15.50;48.00
70954;BME280;58618;47.490;8.736;2022-09-20T14:53:24;96999.03;;;15.89;49.50
70954;BME280;58618;47.490;8.736;2022-09-20T14:56:14;96994.94;;;15.61;47.15
70954;BME280;58618;47.490;8.736;2022-09-20T14:59:18;97002.53;;;15.85;47.84
70954;BME280;58618;47.490;8.736;2022-09-20T15:02:12;96999.31;;;15.88;47.69
70954;BME280;58618;47.490;8.736;2022-09-20T15:05:01;97005.75;;;16.04;49.18
70954;BME280;58618;47.490;8.736;2022-09-20T15:07:49;96998.75;;;16.13;48.64
70954;BME280;58618;47.490;8.736;2022-09-20T15:10:36;97001.84;;;16.15;48.08
70954;BME280;58618;47.490;8.736;2022-09-20T15:13:23;97006.28;;;16.15;48.38
70954;BME280;58618;47.490;8.736;2022-09-20T15:16:12;97008.44;;;15.99;48.68
70954;BME280;58618;47.490;8.736;2022-09-20T15:19:00;97009.63;;;15.93;49.36
70954;BME280;58618;47.490;8.736;2022-09-20T15:21:50;97004.84;;;15.73;49.34
70954;BME280;58618;47.490;8.736;2022-09-20T15:24:37;96995.47;;;15.22;51.25
70954;BME280;58618;47.490;8.736;2022-09-20T15:27:25;97011.81;;;15.23;51.21
70954;BME280;58618;47.490;8.736;2022-09-20T15:30:14;97015.66;;;15.25;51.30
70954;BME280;58618;47.490;8.736;2022-09-20T15:33:02;97018.84;;;15.08;52.65
70954;BME280;58618;47.490;8.736;2022-09-20T15:35:50;97016.22;;;15.08;51.08
70954;BME280;58618;47.490;8.736;2022-09-20T15:38:39;97017.78;;;14.96;52.06
70954;BME280;58618;47.490;8.736;2022-09-20T15:41:26;97010.84;;;15.05;51.55
70954;BME280;58618;47.490;8.736;2022-09-20T15:44:14;97014.47;;;14.76;52.67
70954;BME280;58618;47.490;8.736;2022-09-20T15:47:02;97013.13;;;14.79;52.50
70954;BME280;58618;47.490;8.736;2022-09-20T15:49:50;97014.81;;;14.70;54.99
70954;BME280;58618;47.490;8.736;2022-09-20T15:52:38;97008.81;;;14.42;54.63
70954;BME280;58618;47.490;8.736;2022-09-20T15:55:27;97024.06;;;14.62;55.05
70954;BME280;58618;47.490;8.736;2022-09-20T15:58:15;97024.56;;;14.64;54.42
70954;BME280;58618;47.490;8.736;2022-09-20T16:01:05;97007.00;;;14.56;54.21
70954;BME280;58618;47.490;8.736;2022-09-20T16:03:53;97022.44;;;14.66;53.10
70954;BME280;58618;47.490;8.736;2022-09-20T16:06:43;97026.69;;;14.44;53.50
70954;BME280;58618;47.490;8.736;2022-09-20T16:09:30;97031.72;;;14.35;54.08
70954;BME280;58618;47.490;8.736;2022-09-20T16:12:19;97022.47;;;14.29;53.39
70954;BME280;58618;47.490;8.736;2022-09-20T16:15:08;97026.19;;;14.23;54.42